createdAt,value
2016-12-18T00:00:05.114Z,52.59
2016-12-18T00:05:05.107Z,52.5
2016-12-18T00:10:05.318Z,52.4
2016-12-18T00:15:05.313Z,52.22
2016-12-18T00:20:04.792Z,52.12
2016-12-18T00:25:05.052Z,52.02
2016-12-18T00:30:04.558Z,51.93
2016-12-18T00:35:04.994Z,51.74
2016-12-18T00:40:04.368Z,51.64
2016-12-18T00:45:04.634Z,51.55
2016-12-18T00:50:05.415Z,51.45
2016-12-18T00:55:04.893Z,51.36
2016-12-18T01:00:04.417Z,51.17
2016-12-18T01:05:04.742Z,51.07
2016-12-18T01:10:04.415Z,50.98
2016-12-18T01:15:05.013Z,50.79
2016-12-18T01:20:04.881Z,50.6
2016-12-18T01:25:05.395Z,50.41
2016-12-18T01:30:04.928Z,50.22
2016-12-18T01:35:04.329Z,50.03
2016-12-18T01:40:04.735Z,49.84
2016-12-18T01:45:05.188Z,49.55
2016-12-18T01:50:04.645Z,49.37
2016-12-18T01:55:05.156Z,49.27
2016-12-18T02:00:04.831Z,49.18
2016-12-18T02:05:04.594Z,49.18
2016-12-18T02:10:05.307Z,49.18
2016-12-18T02:15:04.918Z,49.27
2016-12-18T02:20:04.561Z,49.27
2016-12-18T02:25:04.572Z,49.37
2016-12-18T02:30:04.501Z,49.37
2016-12-18T02:35:04.966Z,49.46
2016-12-18T02:40:05.311Z,49.46
2016-12-18T02:45:04.376Z,49.46
2016-12-18T02:50:04.504Z,49.46
2016-12-18T02:55:04.557Z,49.65
2016-12-18T03:00:05.429Z,49.74
2016-12-18T03:05:06.632Z,49.84
2016-12-18T03:10:04.340Z,49.84
2016-12-18T03:15:04.563Z,50.03
2016-12-18T03:20:04.677Z,50.03
2016-12-18T03:25:05.052Z,50.03
2016-12-18T03:30:05.024Z,50.22
2016-12-18T03:35:04.560Z,50.22
2016-12-18T03:40:04.977Z,50.12
2016-12-18T03:45:04.766Z,50.12
2016-12-18T03:50:04.878Z,50.12
2016-12-18T03:55:04.523Z,50.31
2016-12-18T04:00:04.635Z,50.51
2016-12-18T04:05:06.600Z,50.51
2016-12-18T04:10:04.876Z,50.51
2016-12-18T04:15:04.539Z,50.51
2016-12-18T04:20:04.904Z,50.6
2016-12-18T04:25:04.915Z,50.7
2016-12-18T04:30:05.240Z,50.79
2016-12-18T04:35:04.886Z,50.98
2016-12-18T04:40:04.978Z,51.14
2016-12-18T04:45:04.733Z,51.43
2016-12-18T04:50:04.275Z,51.43
2016-12-18T04:55:04.589Z,51.62
2016-12-18T05:00:04.883Z,51.62
2016-12-18T05:05:05.275Z,51.43
2016-12-18T05:10:04.862Z,51.52
2016-12-18T05:15:05.054Z,51.52
2016-12-18T05:20:05.046Z,51.72
2016-12-18T05:25:04.594Z,51.83
2016-12-18T05:30:04.643Z,51.83
2016-12-18T05:35:05.190Z,51.93
2016-12-18T05:40:04.944Z,52
2016-12-18T05:45:05.370Z,52
2016-12-18T05:50:04.691Z,51.9
2016-12-18T05:55:05.163Z,51.81
2016-12-18T06:00:04.761Z,51.62
2016-12-18T06:05:05.058Z,51.62
2016-12-18T06:10:04.492Z,51.52
2016-12-18T06:15:04.692Z,51.43
2016-12-18T06:20:05.235Z,51.43
2016-12-18T06:25:04.667Z,51.43
2016-12-18T06:30:04.858Z,51.43
2016-12-18T06:35:05.524Z,51.33
2016-12-18T06:40:05.156Z,51.36
2016-12-18T06:45:04.972Z,51.52
2016-12-18T06:50:04.855Z,51.52
2016-12-18T06:55:05.347Z,51.43
2016-12-18T07:00:04.522Z,51.33
2016-12-18T07:05:04.966Z,51.05
2016-12-18T07:10:04.685Z,50.86
2016-12-18T07:15:04.446Z,50.76
2016-12-18T07:20:04.957Z,50.7
2016-12-18T07:25:05.326Z,50.6
2016-12-18T07:30:05.287Z,50.51
2016-12-18T07:35:05.250Z,50.41
2016-12-18T07:40:04.952Z,50.41
2016-12-18T07:45:04.585Z,50.31
2016-12-18T07:50:05.336Z,50.22
2016-12-18T07:55:04.937Z,50.12
2016-12-18T08:00:05.052Z,50.12
2016-12-18T08:05:04.823Z,50.12
2016-12-18T08:10:04.473Z,50.12
2016-12-18T08:15:05.114Z,50.12
2016-12-18T08:20:04.783Z,50.22
2016-12-18T08:25:04.987Z,50.31
2016-12-18T08:30:04.988Z,50.31
2016-12-18T08:35:05.333Z,50.51
2016-12-18T08:40:04.432Z,50.6
2016-12-18T08:45:04.579Z,50.7
2016-12-18T08:50:04.522Z,50.89
2016-12-18T08:55:05.148Z,51.26
2016-12-18T09:00:05.145Z,51.64
2016-12-18T09:05:04.363Z,52.12
2016-12-18T09:10:05.171Z,52.5
2016-12-18T09:15:04.583Z,52.78
2016-12-18T09:20:05.356Z,53.07
2016-12-18T09:25:04.917Z,53.45
2016-12-18T09:30:04.541Z,53.64
2016-12-18T09:35:05.360Z,54.11
2016-12-18T09:40:04.906Z,54.3
2016-12-18T09:45:04.440Z,54.78
2016-12-18T09:50:05.334Z,54.99
2016-12-18T09:55:04.535Z,55.18
2016-12-18T10:00:04.958Z,56.42
2016-12-18T10:05:05.075Z,57.94
2016-12-18T10:10:04.333Z,59.74
2016-12-18T10:15:05.414Z,62.02
2016-12-18T10:20:04.609Z,62.5
2016-12-18T10:25:04.941Z,61.36
2016-12-18T10:30:04.817Z,61.74
2016-12-18T10:35:04.389Z,61.83
2016-12-18T10:40:04.647Z,62.31
2016-12-18T10:45:04.734Z,63.95
2016-12-18T10:50:04.687Z,65.76
2016-12-18T10:55:04.572Z,75.21
2016-12-18T11:00:04.686Z,78.34
2016-12-18T11:05:04.594Z,83.23
2016-12-18T11:10:04.740Z,86.24
2016-12-18T11:15:05.442Z,86.9
2016-12-18T11:20:05.323Z,86.52
2016-12-18T11:25:04.836Z,84.81
2016-12-18T11:30:04.925Z,83.95
2016-12-18T11:35:04.869Z,84.72
2016-12-18T11:40:05.119Z,83.29
2016-12-18T11:45:05.421Z,85
2016-12-18T11:50:04.879Z,84.52
2016-12-18T11:55:04.747Z,83.29
2016-12-18T12:00:05.289Z,84.56
2016-12-18T12:05:04.452Z,88.66
2016-12-18T12:10:04.597Z,92.41
2016-12-18T12:15:05.276Z,95.94
2016-12-18T12:20:04.565Z,99.32
2016-12-18T12:25:04.580Z,99.99
2016-12-18T12:30:04.511Z,99.99
2016-12-18T12:35:05.158Z,99.99
2016-12-18T12:40:04.874Z,99.99
2016-12-18T12:45:04.474Z,99.99
2016-12-18T12:50:05.141Z,99.99
2016-12-18T12:55:04.866Z,99.99
2016-12-18T13:00:04.676Z,99.99
2016-12-18T13:05:04.600Z,99.99
2016-12-18T13:10:04.671Z,99.99
2016-12-18T13:15:05.079Z,99.99
2016-12-18T13:20:05.125Z,99.99
2016-12-18T13:25:04.631Z,99.99
2016-12-18T13:30:04.238Z,99.99
2016-12-18T13:35:04.337Z,99.64
2016-12-18T13:40:05.120Z,98.97
2016-12-18T13:45:04.395Z,97.83
2016-12-18T13:50:04.338Z,97.93
2016-12-18T13:55:04.498Z,96.6
2016-12-18T14:00:04.341Z,94.98
2016-12-18T14:05:04.947Z,93.55
2016-12-18T14:10:05.264Z,91.52
2016-12-18T14:15:05.224Z,91.33
2016-12-18T14:20:04.561Z,90.47
2016-12-18T14:25:04.934Z,89.52
2016-12-18T14:30:05.037Z,89.04
2016-12-18T14:35:05.100Z,88.19
2016-12-18T14:40:04.987Z,87.9
2016-12-18T14:45:04.492Z,87.9
2016-12-18T14:50:04.885Z,87.14
2016-12-18T14:55:04.885Z,85.96
2016-12-18T15:00:05.220Z,85.01
2016-12-18T15:05:04.574Z,83.97
2016-12-18T15:10:05.303Z,83.01
2016-12-18T15:15:04.442Z,81.59
2016-12-18T15:20:04.449Z,80.55
2016-12-18T15:25:04.755Z,78.99
2016-12-18T15:30:05.349Z,77.94
2016-12-18T15:35:05.270Z,76.71
2016-12-18T15:40:04.356Z,74.81
2016-12-18T15:45:04.871Z,74.05
2016-12-18T15:50:04.748Z,73
2016-12-18T15:55:04.709Z,72.44
2016-12-18T16:00:04.751Z,71.2
2016-12-18T16:05:04.893Z,70.31
2016-12-18T16:10:05.130Z,69.55
2016-12-18T16:15:04.660Z,68.89
2016-12-18T16:20:05.312Z,67.94
2016-12-18T16:25:04.399Z,67.08
2016-12-18T16:30:04.854Z,66.14
2016-12-18T16:35:05.157Z,65.85
2016-12-18T16:40:05.111Z,65
2016-12-18T16:45:04.684Z,64.33
2016-12-18T16:50:04.791Z,63.86
2016-12-18T16:55:04.664Z,63.48
2016-12-18T17:00:05.507Z,63.2
2016-12-18T17:05:04.957Z,62.72
2016-12-18T17:10:05.056Z,62.43
2016-12-18T17:15:04.962Z,62.34
2016-12-18T17:20:05.339Z,62.15
2016-12-18T17:25:05.228Z,62.15
2016-12-18T17:30:04.554Z,61.83
2016-12-18T17:35:04.880Z,61.36
2016-12-18T17:40:05.250Z,60.7
2016-12-18T17:45:05.226Z,60.31
2016-12-18T17:50:04.718Z,59.56
2016-12-18T17:55:04.615Z,59.18
2016-12-18T18:00:04.951Z,58.99
2016-12-18T18:05:04.663Z,59.08
2016-12-18T18:10:05.042Z,59.27
2016-12-18T18:15:04.579Z,59.46
2016-12-18T18:20:04.325Z,59.66
2016-12-18T18:25:04.628Z,59.75
2016-12-18T18:30:05.167Z,59.66
2016-12-18T18:35:04.496Z,60.31
2016-12-18T18:40:04.641Z,60.41
2016-12-18T18:45:04.563Z,60.5
2016-12-18T18:50:05.099Z,60.98
2016-12-18T18:55:04.573Z,60.6
2016-12-18T19:00:04.769Z,60.5
2016-12-18T19:05:04.846Z,60.31
2016-12-18T19:10:04.958Z,60.22
2016-12-18T19:15:04.488Z,60.03
2016-12-18T19:20:04.568Z,59.94
2016-12-18T19:25:04.920Z,59.84
2016-12-18T19:30:04.748Z,59.66
2016-12-18T19:35:04.758Z,59.27
2016-12-18T19:40:05.145Z,59.08
2016-12-18T19:45:05.005Z,58.89
2016-12-18T19:50:05.317Z,58.7
2016-12-18T19:55:05.123Z,58.51
2016-12-18T20:00:05.231Z,58.42
2016-12-18T20:05:04.567Z,58.14
2016-12-18T20:10:05.032Z,58.04
2016-12-18T20:15:04.895Z,57.85
2016-12-18T20:20:05.171Z,57.76
2016-12-18T20:25:05.252Z,57.57
2016-12-18T20:30:05.262Z,57.47
2016-12-18T20:35:04.654Z,57.28
2016-12-18T20:40:04.653Z,57.09
2016-12-18T20:45:04.980Z,57.09
2016-12-18T20:50:04.872Z,56.99
2016-12-18T20:55:04.588Z,56.9
2016-12-18T21:00:04.761Z,56.81
2016-12-18T21:05:04.895Z,56.71
2016-12-18T21:10:05.413Z,56.71
2016-12-18T21:15:04.635Z,56.62
2016-12-18T21:20:04.858Z,56.52
2016-12-18T21:25:05.197Z,56.43
2016-12-18T21:30:04.625Z,56.43
2016-12-18T21:35:04.805Z,56.34
2016-12-18T21:40:05.055Z,56.34
2016-12-18T21:45:05.154Z,56.05
2016-12-18T21:50:04.840Z,56.15
2016-12-18T21:55:04.983Z,56.05
2016-12-18T22:00:04.775Z,55.96
2016-12-18T22:05:04.702Z,56.05
2016-12-18T22:10:04.970Z,55.67
2016-12-18T22:15:05.146Z,55.48
2016-12-18T22:20:04.917Z,55.38
2016-12-18T22:25:05.090Z,55.29
2016-12-18T22:30:05.353Z,55.19
2016-12-18T22:35:04.628Z,55.1
2016-12-18T22:40:04.680Z,55.1
2016-12-18T22:45:04.820Z,55.1
2016-12-18T22:50:04.899Z,55.19
2016-12-18T22:55:05.069Z,55.19
2016-12-18T23:00:04.719Z,55.29
2016-12-18T23:05:04.649Z,55.38
2016-12-18T23:10:05.135Z,55.38
2016-12-18T23:15:04.708Z,55.38
2016-12-18T23:20:04.870Z,55.29
2016-12-18T23:25:04.897Z,55.29
2016-12-18T23:30:04.885Z,55.29
2016-12-18T23:35:05.037Z,55.29
2016-12-18T23:40:04.597Z,55.19
2016-12-18T23:45:04.762Z,55.1
2016-12-18T23:50:04.964Z,55
2016-12-18T23:55:04.964Z,54.91
